sensor_id;sensor_type;location;lat;lon;timestamp;temperature;humidity
26589;DHT22;14235;48.532;8.722;2022-08-19T00:58:57;19.60;99.90
26589;DHT22;14235;48.532;8.722;2022-08-19T01:01:23;19.70;99.90
26589;DHT22;14235;48.532;8.722;2022-08-19T01:03:49;19.60;99.90
26589;DHT22;14235;48.532;8.722;2022-08-19T01:06:15;19.70;99.90
26589;DHT22;14235;48.532;8.722;2022-08-19T01:08:41;19.60;99.90
26589;DHT22;14235;48.532;8.722;2022-08-19T01:11:07;19.50;99.90
26589;DHT22;14235;48.532;8.722;2022-08-19T01:13:34;19.50;99.90
26589;DHT22;14235;48.532;8.722;2022-08-19T01:16:09;19.50;99.90
26589;DHT22;14235;48.532;8.722;2022-08-19T01:18:39;19.50;99.90
26589;DHT22;14235;48.532;8.722;2022-08-19T01:21:11;19.60;99.90
26589;DHT22;14235;48.532;8.722;2022-08-19T01:23:40;19.50;99.90
26589;DHT22;14235;48.532;8.722;2022-08-19T01:26:15;19.50;99.90
26589;DHT22;14235;48.532;8.722;2022-08-19T01:28:43;19.60;99.90
26589;DHT22;14235;48.532;8.722;2022-08-19T01:31:14;19.40;99.90
26589;DHT22;14235;48.532;8.722;2022-08-19T01:33:40;19.60;99.90
26589;DHT22;14235;48.532;8.722;2022-08-19T01:36:08;19.60;99.90
26589;DHT22;14235;48.532;8.722;2022-08-19T01:38:38;19.50;99.90
26589;DHT22;14235;48.532;8.722;2022-08-19T01:41:04;19.70;99.90
26589;DHT22;14235;48.532;8.722;2022-08-19T01:43:31;19.60;99.90
26589;DHT22;14235;48.532;8.722;2022-08-19T01:45:57;19.80;99.90
26589;DHT22;14235;48.532;8.722;2022-08-19T01:48:22;19.50;99.90
26589;DHT22;14235;48.532;8.722;2022-08-19T01:50:48;19.60;99.90
26589;DHT22;14235;48.532;8.722;2022-08-19T01:53:14;19.50;99.90
26589;DHT22;14235;48.532;8.722;2022-08-19T01:55:42;19.30;99.90
26589;DHT22;14235;48.532;8.722;2022-08-19T01:58:19;19.60;99.90
26589;DHT22;14235;48.532;8.722;2022-08-19T02:00:47;19.30;99.90
26589;DHT22;14235;48.532;8.722;2022-08-19T02:03:13;19.50;99.90
26589;DHT22;14235;48.532;8.722;2022-08-19T02:05:39;19.60;99.90
26589;DHT22;14235;48.532;8.722;2022-08-19T02:08:05;19.30;99.90
26589;DHT22;14235;48.532;8.722;2022-08-19T02:10:31;19.30;99.90
26589;DHT22;14235;48.532;8.722;2022-08-19T02:12:57;19.30;99.90
26589;DHT22;14235;48.532;8.722;2022-08-19T02:15:23;19.20;99.90
26589;DHT22;14235;48.532;8.722;2022-08-19T02:17:49;19.00;99.90
26589;DHT22;14235;48.532;8.722;2022-08-19T02:20:16;19.10;99.90
26589;DHT22;14235;48.532;8.722;2022-08-19T02:22:42;19.10;99.90
26589;DHT22;14235;48.532;8.722;2022-08-19T02:25:09;19.10;99.90
26589;DHT22;14235;48.532;8.722;2022-08-19T02:27:35;19.10;99.90
26589;DHT22;14235;48.532;8.722;2022-08-19T02:30:02;19.00;99.90
26589;DHT22;14235;48.532;8.722;2022-08-19T02:32:28;18.90;99.90
26589;DHT22;14235;48.532;8.722;2022-08-19T02:34:55;19.00;99.90
26589;DHT22;14235;48.532;8.722;2022-08-19T02:37:21;19.10;99.90
26589;DHT22;14235;48.532;8.722;2022-08-19T02:40:05;19.00;99.90
26589;DHT22;14235;48.532;8.722;2022-08-19T02:42:32;19.00;99.90
26589;DHT22;14235;48.532;8.722;2022-08-19T02:44:57;18.90;99.90
26589;DHT22;14235;48.532;8.722;2022-08-19T02:47:23;18.80;99.90
26589;DHT22;14235;48.532;8.722;2022-08-19T02:49:48;19.00;99.90
26589;DHT22;14235;48.532;8.722;2022-08-19T02:57:07;18.40;99.90
26589;DHT22;14235;48.532;8.722;2022-08-19T02:59:33;18.70;99.90
26589;DHT22;14235;48.532;8.722;2022-08-19T03:01:59;18.50;99.90
26589;DHT22;14235;48.532;8.722;2022-08-19T03:04:24;18.70;99.90
26589;DHT22;14235;48.532;8.722;2022-08-19T03:06:50;18.50;99.90
26589;DHT22;14235;48.532;8.722;2022-08-19T03:09:17;18.40;99.90
26589;DHT22;14235;48.532;8.722;2022-08-19T03:11:43;18.50;99.90
26589;DHT22;14235;48.532;8.722;2022-08-19T03:21:34;18.40;99.90
26589;DHT22;14235;48.532;8.722;2022-08-19T03:24:02;18.60;99.90
26589;DHT22;14235;48.532;8.722;2022-08-19T03:26:29;18.40;99.90
26589;DHT22;14235;48.532;8.722;2022-08-19T03:28:55;18.50;99.90
26589;DHT22;14235;48.532;8.722;2022-08-19T03:31:22;18.50;99.90
26589;DHT22;14235;48.532;8.722;2022-08-19T03:33:49;18.60;99.90
26589;DHT22;14235;48.532;8.722;2022-08-19T03:36:18;18.50;99.90
26589;DHT22;14235;48.532;8.722;2022-08-19T03:38:48;18.50;99.90
26589;DHT22;14235;48.532;8.722;2022-08-19T03:41:17;18.40;99.90
26589;DHT22;14235;48.532;8.722;2022-08-19T03:43:44;18.40;99.90
26589;DHT22;14235;48.532;8.722;2022-08-19T03:46:14;18.30;99.90
26589;DHT22;14235;48.532;8.722;2022-08-19T03:48:41;18.40;99.90
26589;DHT22;14235;48.532;8.722;2022-08-19T03:51:08;18.40;99.90
26589;DHT22;14235;48.532;8.722;2022-08-19T03:53:40;18.40;99.90
26589;DHT22;14235;48.532;8.722;2022-08-19T03:56:09;18.30;99.90
26589;DHT22;14235;48.532;8.722;2022-08-19T03:58:35;18.60;99.90
26589;DHT22;14235;48.532;8.722;2022-08-19T04:01:06;18.40;99.90
26589;DHT22;14235;48.532;8.722;2022-08-19T04:03:32;18.50;99.90
26589;DHT22;14235;48.532;8.722;2022-08-19T04:05:57;18.50;99.90
26589;DHT22;14235;48.532;8.722;2022-08-19T04:08:23;18.70;99.90
26589;DHT22;14235;48.532;8.722;2022-08-19T04:10:49;18.50;99.90
26589;DHT22;14235;48.532;8.722;2022-08-19T04:15:44;18.40;99.90
26589;DHT22;14235;48.532;8.722;2022-08-19T04:18:10;18.40;99.90
26589;DHT22;14235;48.532;8.722;2022-08-19T04:20:44;18.50;99.90
26589;DHT22;14235;48.532;8.722;2022-08-19T04:23:11;18.60;99.90
26589;DHT22;14235;48.532;8.722;2022-08-19T04:25:42;18.50;99.90
26589;DHT22;14235;48.532;8.722;2022-08-19T04:35:45;18.20;99.90
26589;DHT22;14235;48.532;8.722;2022-08-19T05:11:15;18.40;99.90
26589;DHT22;14235;48.532;8.722;2022-08-19T05:13:42;18.60;99.90
26589;DHT22;14235;48.532;8.722;2022-08-19T05:16:09;18.50;99.90
26589;DHT22;14235;48.532;8.722;2022-08-19T05:18:35;18.60;99.90
26589;DHT22;14235;48.532;8.722;2022-08-19T05:21:20;18.40;99.90
26589;DHT22;14235;48.532;8.722;2022-08-19T05:24:05;18.50;99.90
26589;DHT22;14235;48.532;8.722;2022-08-19T05:26:35;18.40;99.90
26589;DHT22;14235;48.532;8.722;2022-08-19T05:29:01;18.30;99.90
26589;DHT22;14235;48.532;8.722;2022-08-19T05:31:27;18.40;99.90
26589;DHT22;14235;48.532;8.722;2022-08-19T05:33:52;18.50;99.90
26589;DHT22;14235;48.532;8.722;2022-08-19T05:36:18;18.30;99.90
26589;DHT22;14235;48.532;8.722;2022-08-19T05:38:45;18.40;99.90
26589;DHT22;14235;48.532;8.722;2022-08-19T05:41:14;18.50;99.90
26589;DHT22;14235;48.532;8.722;2022-08-19T05:43:40;18.60;99.90
26589;DHT22;14235;48.532;8.722;2022-08-19T05:46:06;18.50;99.90
26589;DHT22;14235;48.532;8.722;2022-08-19T05:48:35;18.50;99.90
26589;DHT22;14235;48.532;8.722;2022-08-19T05:51:05;18.30;99.90
26589;DHT22;14235;48.532;8.722;2022-08-19T05:53:35;18.40;99.90
26589;DHT22;14235;48.532;8.722;2022-08-19T05:56:08;18.60;99.90
26589;DHT22;14235;48.532;8.722;2022-08-19T05:58:36;18.40;99.90
26589;DHT22;14235;48.532;8.722;2022-08-19T06:08:35;18.50;99.90
26589;DHT22;14235;48.532;8.722;2022-08-19T06:18:33;18.50;99.90
26589;DHT22;14235;48.532;8.722;2022-08-19T06:20:59;18.60;99.90
26589;DHT22;14235;48.532;8.722;2022-08-19T06:23:30;18.70;99.90
26589;DHT22;14235;48.532;8.722;2022-08-19T06:25:56;18.60;99.90
26589;DHT22;14235;48.532;8.722;2022-08-19T06:28:21;18.50;99.90
26589;DHT22;14235;48.532;8.722;2022-08-19T06:30:49;18.90;99.90
26589;DHT22;14235;48.532;8.722;2022-08-19T06:45:32;18.60;99.90
26589;DHT22;14235;48.532;8.722;2022-08-19T06:47:57;18.70;99.90
26589;DHT22;14235;48.532;8.722;2022-08-19T07:07:34;18.80;99.90
26589;DHT22;14235;48.532;8.722;2022-08-19T07:10:00;19.10;99.90
26589;DHT22;14235;48.532;8.722;2022-08-19T07:12:30;18.90;99.90
26589;DHT22;14235;48.532;8.722;2022-08-19T07:14:58;19.00;99.90
26589;DHT22;14235;48.532;8.722;2022-08-19T07:17:24;18.90;99.90
26589;DHT22;14235;48.532;8.722;2022-08-19T07:19:50;19.00;99.90
26589;DHT22;14235;48.532;8.722;2022-08-19T07:22:16;19.10;99.90
26589;DHT22;14235;48.532;8.722;2022-08-19T07:24:43;19.10;99.90
26589;DHT22;14235;48.532;8.722;2022-08-19T07:37:13;19.10;99.90
26589;DHT22;14235;48.532;8.722;2022-08-19T07:39:39;19.00;99.90
26589;DHT22;14235;48.532;8.722;2022-08-19T07:42:09;19.30;99.90
26589;DHT22;14235;48.532;8.722;2022-08-19T07:44:35;19.30;99.90
26589;DHT22;14235;48.532;8.722;2022-08-19T07:47:02;19.20;99.90
26589;DHT22;14235;48.532;8.722;2022-08-19T07:49:28;19.20;99.90
26589;DHT22;14235;48.532;8.722;2022-08-19T07:52:06;19.30;99.90
26589;DHT22;14235;48.532;8.722;2022-08-19T07:54:35;19.30;99.90
26589;DHT22;14235;48.532;8.722;2022-08-19T07:57:01;19.30;99.90
26589;DHT22;14235;48.532;8.722;2022-08-19T07:59:27;19.50;99.90
26589;DHT22;14235;48.532;8.722;2022-08-19T08:01:54;19.40;99.90
26589;DHT22;14235;48.532;8.722;2022-08-19T08:04:20;19.40;99.90
26589;DHT22;14235;48.532;8.722;2022-08-19T08:07:06;19.30;99.90
26589;DHT22;14235;48.532;8.722;2022-08-19T08:09:52;19.50;99.90
26589;DHT22;14235;48.532;8.722;2022-08-19T08:12:21;19.60;99.90
26589;DHT22;14235;48.532;8.722;2022-08-19T08:17:21;19.60;99.90
26589;DHT22;14235;48.532;8.722;2022-08-19T08:19:47;19.80;99.90
26589;DHT22;14235;48.532;8.722;2022-08-19T08:22:17;19.80;99.90
26589;DHT22;14235;48.532;8.722;2022-08-19T08:25:08;20.00;99.90
26589;DHT22;14235;48.532;8.722;2022-08-19T08:27:38;20.00;99.90
26589;DHT22;14235;48.532;8.722;2022-08-19T08:30:07;20.10;99.90
26589;DHT22;14235;48.532;8.722;2022-08-19T08:32:35;20.10;99.90
26589;DHT22;14235;48.532;8.722;2022-08-19T08:35:04;20.50;99.90
26589;DHT22;14235;48.532;8.722;2022-08-19T08:37:29;20.50;99.90
26589;DHT22;14235;48.532;8.722;2022-08-19T08:39:55;20.60;99.90
26589;DHT22;14235;48.532;8.722;2022-08-19T08:50:09;20.60;99.90
26589;DHT22;14235;48.532;8.722;2022-08-19T08:52:43;20.80;99.90
26589;DHT22;14235;48.532;8.722;2022-08-19T09:02:46;20.90;99.90
26589;DHT22;14235;48.532;8.722;2022-08-19T09:05:13;21.00;99.90
26589;DHT22;14235;48.532;8.722;2022-08-19T09:08:04;20.90;99.90
26589;DHT22;14235;48.532;8.722;2022-08-19T09:10:46;20.90;99.90
26589;DHT22;14235;48.532;8.722;2022-08-19T09:18:42;20.80;99.90
26589;DHT22;14235;48.532;8.722;2022-08-19T09:21:09;20.80;99.90
26589;DHT22;14235;48.532;8.722;2022-08-19T09:23:36;20.70;99.90
26589;DHT22;14235;48.532;8.722;2022-08-19T09:26:10;20.80;99.90
26589;DHT22;14235;48.532;8.722;2022-08-19T09:28:43;20.90;99.90
26589;DHT22;14235;48.532;8.722;2022-08-19T09:31:13;20.90;99.90
26589;DHT22;14235;48.532;8.722;2022-08-19T09:33:39;20.90;99.90
26589;DHT22;14235;48.532;8.722;2022-08-19T09:36:11;21.00;99.90
26589;DHT22;14235;48.532;8.722;2022-08-19T09:38:37;21.00;99.90
26589;DHT22;14235;48.532;8.722;2022-08-19T09:41:10;21.10;99.90
26589;DHT22;14235;48.532;8.722;2022-08-19T09:43:38;21.10;99.90
26589;DHT22;14235;48.532;8.722;2022-08-19T09:46:05;21.20;99.90
26589;DHT22;14235;48.532;8.722;2022-08-19T09:48:39;21.10;99.90
26589;DHT22;14235;48.532;8.722;2022-08-19T09:51:07;21.20;99.90
26589;DHT22;14235;48.532;8.722;2022-08-19T09:53:34;21.20;99.90
26589;DHT22;14235;48.532;8.722;2022-08-19T09:56:00;21.30;99.90
26589;DHT22;14235;48.532;8.722;2022-08-19T09:58:26;21.30;99.90
26589;DHT22;14235;48.532;8.722;2022-08-19T10:00:58;21.40;99.90
26589;DHT22;14235;48.532;8.722;2022-08-19T10:03:25;21.40;99.90
26589;DHT22;14235;48.532;8.722;2022-08-19T10:05:50;21.40;99.90
26589;DHT22;14235;48.532;8.722;2022-08-19T10:08:19;21.40;99.90
26589;DHT22;14235;48.532;8.722;2022-08-19T10:10:46;21.60;99.90
26589;DHT22;14235;48.532;8.722;2022-08-19T10:13:14;21.50;99.90
26589;DHT22;14235;48.532;8.722;2022-08-19T10:15:40;21.60;99.90
26589;DHT22;14235;48.532;8.722;2022-08-19T10:18:07;21.60;99.90
26589;DHT22;14235;48.532;8.722;2022-08-19T10:20:33;21.60;99.90
26589;DHT22;14235;48.532;8.722;2022-08-19T10:22:59;21.60;99.90
26589;DHT22;14235;48.532;8.722;2022-08-19T10:25:25;21.60;99.90
26589;DHT22;14235;48.532;8.722;2022-08-19T10:27:52;21.60;99.90
26589;DHT22;14235;48.532;8.722;2022-08-19T10:30:18;21.70;99.90
26589;DHT22;14235;48.532;8.722;2022-08-19T10:32:44;21.60;99.90
26589;DHT22;14235;48.532;8.722;2022-08-19T10:35:11;21.70;99.90
26589;DHT22;14235;48.532;8.722;2022-08-19T10:37:38;21.70;99.90
26589;DHT22;14235;48.532;8.722;2022-08-19T10:40:07;21.80;99.90
26589;DHT22;14235;48.532;8.722;2022-08-19T10:42:34;21.70;99.90
26589;DHT22;14235;48.532;8.722;2022-08-19T10:45:01;21.80;99.90
26589;DHT22;14235;48.532;8.722;2022-08-19T10:47:26;21.80;99.90
26589;DHT22;14235;48.532;8.722;2022-08-19T10:49:53;21.80;99.90
26589;DHT22;14235;48.532;8.722;2022-08-19T10:52:43;21.90;99.90
26589;DHT22;14235;48.532;8.722;2022-08-19T10:55:09;22.00;99.90
26589;DHT22;14235;48.532;8.722;2022-08-19T10:57:53;22.10;99.90
26589;DHT22;14235;48.532;8.722;2022-08-19T11:00:20;22.10;99.90
26589;DHT22;14235;48.532;8.722;2022-08-19T11:02:46;22.50;99.90
26589;DHT22;14235;48.532;8.722;2022-08-19T11:05:12;22.60;99.90
26589;DHT22;14235;48.532;8.722;2022-08-19T11:07:40;22.70;99.90
26589;DHT22;14235;48.532;8.722;2022-08-19T11:10:07;22.70;99.90
26589;DHT22;14235;48.532;8.722;2022-08-19T11:12:33;22.60;99.90
26589;DHT22;14235;48.532;8.722;2022-08-19T11:14:59;22.80;99.90
26589;DHT22;14235;48.532;8.722;2022-08-19T11:17:25;22.60;99.90
26589;DHT22;14235;48.532;8.722;2022-08-19T11:19:50;22.60;99.90
26589;DHT22;14235;48.532;8.722;2022-08-19T11:22:16;22.60;99.90
26589;DHT22;14235;48.532;8.722;2022-08-19T11:24:42;22.50;99.90
26589;DHT22;14235;48.532;8.722;2022-08-19T11:27:09;22.50;99.90
26589;DHT22;14235;48.532;8.722;2022-08-19T11:29:38;22.40;99.90
26589;DHT22;14235;48.532;8.722;2022-08-19T11:32:06;22.40;99.90
26589;DHT22;14235;48.532;8.722;2022-08-19T11:34:32;22.50;99.90
26589;DHT22;14235;48.532;8.722;2022-08-19T11:36:58;22.70;99.90
26589;DHT22;14235;48.532;8.722;2022-08-19T11:39:27;22.90;99.90
26589;DHT22;14235;48.532;8.722;2022-08-19T11:41:52;22.90;99.90
26589;DHT22;14235;48.532;8.722;2022-08-19T11:44:18;22.80;99.90
26589;DHT22;14235;48.532;8.722;2022-08-19T11:46:45;23.00;99.90
26589;DHT22;14235;48.532;8.722;2022-08-19T11:49:12;22.90;99.90
26589;DHT22;14235;48.532;8.722;2022-08-19T11:51:39;22.90;99.90
26589;DHT22;14235;48.532;8.722;2022-08-19T11:54:05;23.00;99.90
26589;DHT22;14235;48.532;8.722;2022-08-19T11:56:31;23.00;99.90
26589;DHT22;14235;48.532;8.722;2022-08-19T11:58:57;23.00;99.90
26589;DHT22;14235;48.532;8.722;2022-08-19T12:01:24;23.10;99.90
26589;DHT22;14235;48.532;8.722;2022-08-19T12:03:52;23.10;99.90
26589;DHT22;14235;48.532;8.722;2022-08-19T12:06:22;23.20;99.90
26589;DHT22;14235;48.532;8.722;2022-08-19T12:08:54;23.10;99.90
26589;DHT22;14235;48.532;8.722;2022-08-19T12:11:20;23.10;99.90
26589;DHT22;14235;48.532;8.722;2022-08-19T12:13:45;23.10;99.90
26589;DHT22;14235;48.532;8.722;2022-08-19T12:16:20;23.10;99.90
26589;DHT22;14235;48.532;8.722;2022-08-19T12:18:48;23.10;99.90
26589;DHT22;14235;48.532;8.722;2022-08-19T12:21:21;23.10;99.90
26589;DHT22;14235;48.532;8.722;2022-08-19T12:23:48;23.30;99.90
26589;DHT22;14235;48.532;8.722;2022-08-19T12:26:15;23.50;99.90
26589;DHT22;14235;48.532;8.722;2022-08-19T12:28:41;23.70;99.90
26589;DHT22;14235;48.532;8.722;2022-08-19T12:31:07;23.60;99.90
26589;DHT22;14235;48.532;8.722;2022-08-19T12:33:33;23.60;99.90
26589;DHT22;14235;48.532;8.722;2022-08-19T12:36:04;23.60;99.90
26589;DHT22;14235;48.532;8.722;2022-08-19T12:38:31;23.50;99.90
26589;DHT22;14235;48.532;8.722;2022-08-19T12:40:58;23.40;99.90
26589;DHT22;14235;48.532;8.722;2022-08-19T12:43:23;23.30;99.90
26589;DHT22;14235;48.532;8.722;2022-08-19T12:45:49;23.30;99.90
26589;DHT22;14235;48.532;8.722;2022-08-19T12:48:16;23.30;99.90
26589;DHT22;14235;48.532;8.722;2022-08-19T12:50:43;23.40;99.90
26589;DHT22;14235;48.532;8.722;2022-08-19T12:53:11;23.50;99.90
26589;DHT22;14235;48.532;8.722;2022-08-19T12:55:36;23.70;99.90
26589;DHT22;14235;48.532;8.722;2022-08-19T12:58:02;23.90;99.90
26589;DHT22;14235;48.532;8.722;2022-08-19T13:00:28;24.00;99.20
26589;DHT22;14235;48.532;8.722;2022-08-19T13:02:54;24.10;98.90
26589;DHT22;14235;48.532;8.722;2022-08-19T13:05:22;24.20;98.60
26589;DHT22;14235;48.532;8.722;2022-08-19T13:07:51;24.30;98.60
26589;DHT22;14235;48.532;8.722;2022-08-19T13:10:19;24.20;98.70
26589;DHT22;14235;48.532;8.722;2022-08-19T13:12:47;24.00;99.40
26589;DHT22;14235;48.532;8.722;2022-08-19T13:15:15;23.80;99.70
26589;DHT22;14235;48.532;8.722;2022-08-19T13:17:49;23.60;99.90
26589;DHT22;14235;48.532;8.722;2022-08-19T13:20:17;23.40;99.90
26589;DHT22;14235;48.532;8.722;2022-08-19T13:22:44;23.40;99.90
26589;DHT22;14235;48.532;8.722;2022-08-19T13:25:10;23.30;99.90
26589;DHT22;14235;48.532;8.722;2022-08-19T13:27:36;23.40;99.90
26589;DHT22;14235;48.532;8.722;2022-08-19T13:30:04;23.50;99.90
26589;DHT22;14235;48.532;8.722;2022-08-19T13:32:48;23.50;99.90
26589;DHT22;14235;48.532;8.722;2022-08-19T13:35:32;23.60;99.90
26589;DHT22;14235;48.532;8.722;2022-08-19T13:37:58;23.60;99.90
26589;DHT22;14235;48.532;8.722;2022-08-19T13:40:24;23.60;99.90
26589;DHT22;14235;48.532;8.722;2022-08-19T13:42:54;23.70;99.90
26589;DHT22;14235;48.532;8.722;2022-08-19T13:45:23;23.70;99.70
26589;DHT22;14235;48.532;8.722;2022-08-19T13:47:51;23.70;99.60
26589;DHT22;14235;48.532;8.722;2022-08-19T13:50:21;23.60;99.70
26589;DHT22;14235;48.532;8.722;2022-08-19T13:52:46;23.60;99.30
26589;DHT22;14235;48.532;8.722;2022-08-19T13:55:13;23.60;99.60
26589;DHT22;14235;48.532;8.722;2022-08-19T13:57:40;23.50;99.80
26589;DHT22;14235;48.532;8.722;2022-08-19T14:00:10;23.40;99.50
26589;DHT22;14235;48.532;8.722;2022-08-19T14:02:37;23.30;99.70
26589;DHT22;14235;48.532;8.722;2022-08-19T14:05:04;23.20;99.90
26589;DHT22;14235;48.532;8.722;2022-08-19T14:07:30;23.10;99.90
26589;DHT22;14235;48.532;8.722;2022-08-19T14:09:57;23.10;99.90
26589;DHT22;14235;48.532;8.722;2022-08-19T14:12:22;23.00;99.90
26589;DHT22;14235;48.532;8.722;2022-08-19T14:14:48;22.90;99.90
26589;DHT22;14235;48.532;8.722;2022-08-19T14:17:14;22.90;99.90
26589;DHT22;14235;48.532;8.722;2022-08-19T14:19:41;22.90;99.90
26589;DHT22;14235;48.532;8.722;2022-08-19T14:22:06;22.80;99.90
26589;DHT22;14235;48.532;8.722;2022-08-19T14:24:32;22.80;99.90
26589;DHT22;14235;48.532;8.722;2022-08-19T14:26:58;22.80;99.90
26589;DHT22;14235;48.532;8.722;2022-08-19T14:29:24;22.70;99.90
26589;DHT22;14235;48.532;8.722;2022-08-19T14:31:49;23.10;99.90
26589;DHT22;14235;48.532;8.722;2022-08-19T14:34:15;22.70;99.90
26589;DHT22;14235;48.532;8.722;2022-08-19T14:36:41;22.70;99.90
26589;DHT22;14235;48.532;8.722;2022-08-19T14:39:07;22.70;99.90
26589;DHT22;14235;48.532;8.722;2022-08-19T14:41:33;22.70;99.90
26589;DHT22;14235;48.532;8.722;2022-08-19T14:43:59;22.80;99.90
26589;DHT22;14235;48.532;8.722;2022-08-19T14:46:27;22.80;99.90
26589;DHT22;14235;48.532;8.722;2022-08-19T14:48:54;22.80;99.90
26589;DHT22;14235;48.532;8.722;2022-08-19T14:51:22;22.90;99.90
26589;DHT22;14235;48.532;8.722;2022-08-19T14:53:48;23.00;99.90
26589;DHT22;14235;48.532;8.722;2022-08-19T14:56:16;23.10;99.90
26589;DHT22;14235;48.532;8.722;2022-08-19T14:58:43;23.10;99.90
26589;DHT22;14235;48.532;8.722;2022-08-19T15:01:10;23.20;99.90
26589;DHT22;14235;48.532;8.722;2022-08-19T15:03:37;23.30;99.90
26589;DHT22;14235;48.532;8.722;2022-08-19T15:06:04;23.30;99.90
26589;DHT22;14235;48.532;8.722;2022-08-19T15:08:31;23.40;99.90
26589;DHT22;14235;48.532;8.722;2022-08-19T15:10:58;23.50;99.90
26589;DHT22;14235;48.532;8.722;2022-08-19T15:13:25;23.60;99.90
26589;DHT22;14235;48.532;8.722;2022-08-19T15:15:52;23.80;99.90
26589;DHT22;14235;48.532;8.722;2022-08-19T15:18:18;23.90;99.90
26589;DHT22;14235;48.532;8.722;2022-08-19T15:20:46;24.10;99.90
26589;DHT22;14235;48.532;8.722;2022-08-19T15:23:13;24.80;95.20
26589;DHT22;14235;48.532;8.722;2022-08-19T15:25:40;25.10;94.90
26589;DHT22;14235;48.532;8.722;2022-08-19T15:28:06;25.50;94.60
26589;DHT22;14235;48.532;8.722;2022-08-19T15:30:32;25.40;93.50
26589;DHT22;14235;48.532;8.722;2022-08-19T15:32:59;25.40;92.60
26589;DHT22;14235;48.532;8.722;2022-08-19T15:35:25;25.40;92.20
26589;DHT22;14235;48.532;8.722;2022-08-19T15:37:52;25.30;92.70
26589;DHT22;14235;48.532;8.722;2022-08-19T15:40:19;25.50;94.10
26589;DHT22;14235;48.532;8.722;2022-08-19T15:42:45;25.70;96.20
26589;DHT22;14235;48.532;8.722;2022-08-19T15:45:13;25.60;94.80
26589;DHT22;14235;48.532;8.722;2022-08-19T15:47:40;25.40;95.10
26589;DHT22;14235;48.532;8.722;2022-08-19T15:50:17;25.20;95.80
26589;DHT22;14235;48.532;8.722;2022-08-19T15:52:57;24.80;95.60
26589;DHT22;14235;48.532;8.722;2022-08-19T15:55:27;24.70;95.90
26589;DHT22;14235;48.532;8.722;2022-08-19T15:57:52;24.50;96.20
26589;DHT22;14235;48.532;8.722;2022-08-19T16:00:37;24.40;96.00
26589;DHT22;14235;48.532;8.722;2022-08-19T16:03:21;24.30;96.10
26589;DHT22;14235;48.532;8.722;2022-08-19T16:06:05;24.10;96.50
26589;DHT22;14235;48.532;8.722;2022-08-19T16:08:59;23.90;96.60
26589;DHT22;14235;48.532;8.722;2022-08-19T16:11:32;23.80;97.00
26589;DHT22;14235;48.532;8.722;2022-08-19T16:13:59;23.70;97.00
26589;DHT22;14235;48.532;8.722;2022-08-19T16:16:28;23.60;97.30
26589;DHT22;14235;48.532;8.722;2022-08-19T16:18:58;23.60;97.80
26589;DHT22;14235;48.532;8.722;2022-08-19T16:21:27;23.40;98.10
26589;DHT22;14235;48.532;8.722;2022-08-19T16:23:58;23.40;98.40
26589;DHT22;14235;48.532;8.722;2022-08-19T16:26:25;23.30;99.20
26589;DHT22;14235;48.532;8.722;2022-08-19T16:28:54;23.20;99.80
26589;DHT22;14235;48.532;8.722;2022-08-19T16:31:20;23.20;99.90
26589;DHT22;14235;48.532;8.722;2022-08-19T16:33:46;23.20;99.90
26589;DHT22;14235;48.532;8.722;2022-08-19T16:36:12;23.00;99.90
26589;DHT22;14235;48.532;8.722;2022-08-19T16:38:37;23.00;99.90
26589;DHT22;14235;48.532;8.722;2022-08-19T16:41:03;23.00;99.90
26589;DHT22;14235;48.532;8.722;2022-08-19T16:43:29;22.80;99.90
26589;DHT22;14235;48.532;8.722;2022-08-19T16:45:56;22.80;99.90
26589;DHT22;14235;48.532;8.722;2022-08-19T16:48:25;22.80;99.90
26589;DHT22;14235;48.532;8.722;2022-08-19T16:50:54;22.70;99.90
26589;DHT22;14235;48.532;8.722;2022-08-19T16:53:22;22.80;99.90
26589;DHT22;14235;48.532;8.722;2022-08-19T16:55:56;22.70;99.90
26589;DHT22;14235;48.532;8.722;2022-08-19T16:58:23;22.60;99.90
26589;DHT22;14235;48.532;8.722;2022-08-19T17:00:52;22.60;99.90
26589;DHT22;14235;48.532;8.722;2022-08-19T17:03:19;22.50;99.90
26589;DHT22;14235;48.532;8.722;2022-08-19T17:05:50;22.50;99.90
26589;DHT22;14235;48.532;8.722;2022-08-19T17:08:17;22.50;99.90
26589;DHT22;14235;48.532;8.722;2022-08-19T17:10:43;22.60;99.90
26589;DHT22;14235;48.532;8.722;2022-08-19T17:13:10;22.40;99.90
26589;DHT22;14235;48.532;8.722;2022-08-19T17:15:36;22.40;99.90
26589;DHT22;14235;48.532;8.722;2022-08-19T17:18:04;22.40;99.90
26589;DHT22;14235;48.532;8.722;2022-08-19T17:20:31;22.30;99.90
26589;DHT22;14235;48.532;8.722;2022-08-19T17:22:57;22.30;99.90
26589;DHT22;14235;48.532;8.722;2022-08-19T17:25:24;22.40;99.90
26589;DHT22;14235;48.532;8.722;2022-08-19T17:27:50;22.50;99.90
26589;DHT22;14235;48.532;8.722;2022-08-19T17:30:19;22.50;99.90
26589;DHT22;14235;48.532;8.722;2022-08-19T17:32:45;22.30;99.90
26589;DHT22;14235;48.532;8.722;2022-08-19T17:35:11;22.30;99.90
26589;DHT22;14235;48.532;8.722;2022-08-19T17:37:37;22.30;99.90
26589;DHT22;14235;48.532;8.722;2022-08-19T17:40:06;22.30;99.90
26589;DHT22;14235;48.532;8.722;2022-08-19T17:42:33;22.30;99.90
26589;DHT22;14235;48.532;8.722;2022-08-19T17:44:58;22.40;99.90
26589;DHT22;14235;48.532;8.722;2022-08-19T17:47:25;22.20;99.90
26589;DHT22;14235;48.532;8.722;2022-08-19T17:49:52;22.20;99.90
26589;DHT22;14235;48.532;8.722;2022-08-19T17:52:18;22.20;99.90
26589;DHT22;14235;48.532;8.722;2022-08-19T17:54:44;22.20;99.90
26589;DHT22;14235;48.532;8.722;2022-08-19T17:57:10;22.10;99.90
26589;DHT22;14235;48.532;8.722;2022-08-19T17:59:36;22.20;99.90
26589;DHT22;14235;48.532;8.722;2022-08-19T18:02:03;22.20;99.90
26589;DHT22;14235;48.532;8.722;2022-08-19T18:04:29;22.10;99.90
26589;DHT22;14235;48.532;8.722;2022-08-19T18:06:55;22.10;99.90
26589;DHT22;14235;48.532;8.722;2022-08-19T18:09:26;22.10;99.90
26589;DHT22;14235;48.532;8.722;2022-08-19T18:11:54;22.10;99.90
26589;DHT22;14235;48.532;8.722;2022-08-19T18:14:22;22.10;99.90
26589;DHT22;14235;48.532;8.722;2022-08-19T18:16:52;22.10;99.90
26589;DHT22;14235;48.532;8.722;2022-08-19T18:19:20;22.00;99.90
26589;DHT22;14235;48.532;8.722;2022-08-19T18:21:46;22.00;99.90
26589;DHT22;14235;48.532;8.722;2022-08-19T18:24:12;21.90;99.90
26589;DHT22;14235;48.532;8.722;2022-08-19T18:26:37;21.90;99.90
26589;DHT22;14235;48.532;8.722;2022-08-19T18:29:04;21.90;99.90
26589;DHT22;14235;48.532;8.722;2022-08-19T18:31:30;21.80;99.90
26589;DHT22;14235;48.532;8.722;2022-08-19T18:33:56;22.00;99.90
26589;DHT22;14235;48.532;8.722;2022-08-19T18:36:23;21.80;99.90
26589;DHT22;14235;48.532;8.722;2022-08-19T18:38:49;21.80;99.90
26589;DHT22;14235;48.532;8.722;2022-08-19T18:41:33;21.70;99.90
26589;DHT22;14235;48.532;8.722;2022-08-19T18:44:17;21.70;99.90
26589;DHT22;14235;48.532;8.722;2022-08-19T18:47:01;21.60;99.90